createdAt,value
2017-02-06T07:32:22.797Z,23.2
2017-02-06T07:34:33.073Z,22.88
2017-02-06T07:35:03.868Z,22.77
2017-02-06T07:35:34.744Z,22.71
2017-02-06T07:36:05.698Z,22.62
2017-02-06T07:36:36.523Z,22.62
2017-02-06T07:37:07.298Z,22.56
2017-02-06T07:37:38.082Z,22.53
2017-02-06T07:38:08.828Z,22.55
2017-02-06T07:38:39.627Z,22.53
2017-02-06T07:39:10.433Z,22.51
2017-02-06T07:39:41.202Z,22.56
2017-02-06T07:40:12.023Z,22.55
2017-02-06T07:40:42.823Z,22.44
2017-02-06T07:41:13.628Z,22.46
2017-02-06T07:41:44.434Z,22.43
2017-02-06T07:42:15.282Z,22.46
2017-02-06T07:42:46.101Z,22.43
2017-02-06T07:43:16.862Z,22.41
2017-02-06T07:43:47.628Z,22.4
2017-02-06T07:44:18.413Z,22.46
2017-02-06T07:44:49.266Z,22.47
2017-02-06T07:45:20.093Z,22.41
2017-02-06T07:45:50.882Z,22.41
2017-02-06T07:46:21.663Z,22.43
2017-02-06T07:46:52.442Z,22.38
2017-02-06T07:47:23.216Z,22.38
2017-02-06T07:47:54.064Z,22.36
2017-02-06T07:48:24.937Z,22.43
2017-02-06T07:48:55.788Z,22.43
2017-02-06T07:49:26.591Z,22.46
2017-02-06T07:49:57.362Z,22.41
2017-02-06T07:50:28.112Z,22.38
2017-02-06T07:50:58.903Z,22.47
2017-02-06T10:45:26.275Z,22.18
2017-02-06T10:45:57.076Z,22.23
2017-02-06T10:46:27.892Z,22.19
2017-02-06T10:46:58.702Z,22.25
2017-02-06T10:47:29.566Z,22.21
2017-02-06T10:48:00.391Z,22.16
2017-02-06T10:48:31.216Z,22.28
2017-02-06T10:49:02.142Z,22.61
2017-02-06T10:49:32.922Z,22.55
2017-02-06T10:50:03.916Z,22.36
2017-02-06T10:50:34.766Z,22.21
2017-02-06T10:51:05.596Z,22.15
2017-02-06T10:51:36.426Z,22.12
2017-02-06T10:52:07.354Z,22.03
2017-02-06T10:52:38.398Z,22.08
2017-02-06T10:53:09.397Z,21.97
2017-02-06T10:53:40.204Z,21.96
2017-02-06T10:54:11.006Z,22.04
2017-02-06T10:54:41.844Z,21.97
2017-02-06T10:55:12.696Z,21.94
2017-02-06T10:55:43.496Z,21.85
2017-02-06T10:56:14.351Z,21.89
2017-02-06T10:56:45.172Z,21.85
2017-02-06T10:57:15.916Z,21.89
2017-02-06T10:57:47.577Z,22.06
2017-02-06T10:58:18.416Z,21.96
2017-02-06T10:58:49.196Z,21.96
2017-02-06T10:59:19.976Z,21.92
2017-02-06T10:59:50.856Z,21.97
2017-02-06T11:00:21.661Z,21.83
2017-02-06T11:00:52.467Z,21.92
2017-02-06T11:01:23.311Z,21.88
2017-02-06T11:01:54.142Z,21.83
2017-02-06T11:02:24.996Z,21.97
2017-02-06T11:02:55.834Z,22.01
2017-02-06T11:03:26.763Z,21.97
2017-02-06T11:03:57.585Z,21.94
2017-02-06T11:04:28.414Z,22
2017-02-06T11:04:59.243Z,21.97
2017-02-06T11:05:30.044Z,21.94
2017-02-06T11:06:00.881Z,21.97
2017-02-06T11:06:31.716Z,21.97
2017-02-06T11:07:02.712Z,21.97
2017-02-06T11:07:33.567Z,22
2017-02-06T11:08:04.378Z,21.92
2017-02-06T11:08:35.202Z,21.97
2017-02-06T11:09:06.034Z,21.83
2017-02-06T11:09:36.886Z,22.03
2017-02-06T11:10:07.721Z,21.99
2017-02-06T11:10:38.532Z,21.84
2017-02-06T11:11:09.434Z,21.88
2017-02-06T11:11:40.312Z,21.88
